createdAt,value
2019-01-30T00:01:34.764Z,100.00
2019-01-30T00:04:25.238Z,100.00
2019-01-30T00:07:15.713Z,100.00
2019-01-30T00:10:06.364Z,100.00
2019-01-30T00:12:56.678Z,100.00
2019-01-30T00:15:56.148Z,100.00
2019-01-30T00:18:38.729Z,100.00
2019-01-30T00:21:29.333Z,100.00
2019-01-30T00:24:19.781Z,100.00
2019-01-30T00:27:10.688Z,100.00
2019-01-30T00:30:04.211Z,100.00
2019-01-30T00:32:53.524Z,100.00
2019-01-30T00:35:44.062Z,100.00
2019-01-30T00:38:34.496Z,100.00
2019-01-30T00:41:25.087Z,100.00
2019-01-30T00:44:16.641Z,100.00
2019-01-30T00:47:15.705Z,100.00
2019-01-30T00:49:59.436Z,100.00
2019-01-30T00:52:49.871Z,100.00
2019-01-30T00:55:41.495Z,100.00
2019-01-30T00:58:31.663Z,100.00
2019-01-30T01:01:22.258Z,100.00
2019-01-30T01:04:12.800Z,100.00
2019-01-30T01:07:03.002Z,100.00
2019-01-30T01:09:53.225Z,100.00
2019-01-30T01:12:43.622Z,100.00
2019-01-30T01:15:34.302Z,100.00
2019-01-30T01:18:24.933Z,100.00
2019-01-30T01:21:15.467Z,100.00
2019-01-30T01:24:06.015Z,100.00
2019-01-30T01:26:56.411Z,100.00
2019-01-30T01:29:46.829Z,100.00
2019-01-30T01:32:37.370Z,100.00
2019-01-30T01:35:27.968Z,100.00
2019-01-30T01:38:18.144Z,100.00
2019-01-30T01:41:08.581Z,100.00
2019-01-30T01:43:59.036Z,100.00
2019-01-30T01:46:49.475Z,100.00
2019-01-30T01:49:40.195Z,100.00
2019-01-30T01:52:30.757Z,100.00
2019-01-30T01:55:20.944Z,100.00
2019-01-30T01:58:11.598Z,100.00
2019-01-30T02:01:02.136Z,100.00
2019-01-30T02:03:53.202Z,100.00
2019-01-30T02:06:43.416Z,100.00
2019-01-30T02:09:33.902Z,100.00
2019-01-30T02:12:24.326Z,100.00
2019-01-30T02:15:17.146Z,100.00
2019-01-30T02:18:08.632Z,100.00
2019-01-30T02:20:58.926Z,100.00
2019-01-30T02:23:49.314Z,100.00
2019-01-30T02:26:40.058Z,100.00
2019-01-30T02:29:31.662Z,100.00
2019-01-30T02:32:22.375Z,100.00
2019-01-30T02:35:12.558Z,100.00
2019-01-30T02:38:02.807Z,100.00
2019-01-30T02:40:53.350Z,100.00
2019-01-30T02:43:43.566Z,100.00
2019-01-30T02:46:34.067Z,100.00
2019-01-30T02:49:24.520Z,100.00
2019-01-30T02:52:14.955Z,100.00
2019-01-30T02:55:05.541Z,100.00
2019-01-30T02:57:55.865Z,100.00
2019-01-30T03:00:58.536Z,100.00
2019-01-30T03:03:39.521Z,100.00
2019-01-30T03:06:30.007Z,100.00
2019-01-30T03:09:20.533Z,100.00
2019-01-30T03:12:11.106Z,100.00
2019-01-30T03:15:01.572Z,100.00
2019-01-30T03:17:52.084Z,100.00
2019-01-30T03:20:42.283Z,100.00
2019-01-30T03:23:32.789Z,100.00
2019-01-30T03:26:23.274Z,100.00
2019-01-30T03:29:14.518Z,100.00
2019-01-30T03:32:04.735Z,100.00
2019-01-30T03:34:54.931Z,100.00
2019-01-30T03:37:45.515Z,100.00
2019-01-30T03:40:36.179Z,100.00
2019-01-30T03:43:29.258Z,100.00
2019-01-30T03:46:19.916Z,100.00
2019-01-30T03:49:10.215Z,100.00
2019-01-30T03:52:00.641Z,100.00
2019-01-30T03:54:50.728Z,100.00
2019-01-30T03:57:41.689Z,100.00
2019-01-30T04:00:31.961Z,100.00
2019-01-30T04:03:22.522Z,100.00
2019-01-30T04:06:12.685Z,100.00
2019-01-30T04:09:04.350Z,100.00
2019-01-30T04:11:54.607Z,100.00
2019-01-30T04:14:45.577Z,100.00
2019-01-30T04:17:36.261Z,100.00
2019-01-30T04:20:26.955Z,100.00
2019-01-30T04:23:17.326Z,100.00
2019-01-30T04:26:07.760Z,100.00
2019-01-30T04:28:59.014Z,100.00
2019-01-30T04:31:49.545Z,100.00
2019-01-30T04:34:39.652Z,100.00
2019-01-30T04:37:29.959Z,100.00
2019-01-30T04:40:21.066Z,100.00
2019-01-30T04:43:11.517Z,100.00
2019-01-30T04:46:01.913Z,100.00
2019-01-30T04:48:52.497Z,100.00
2019-01-30T04:51:43.089Z,100.00
2019-01-30T04:54:33.749Z,100.00
2019-01-30T04:57:24.356Z,100.00
2019-01-30T05:00:16.984Z,100.00
2019-01-30T05:03:07.488Z,100.00
2019-01-30T05:05:58.298Z,100.00
2019-01-30T05:08:48.612Z,100.00
2019-01-30T05:11:39.168Z,100.00
2019-01-30T05:14:29.413Z,97.94
2019-01-30T05:17:19.702Z,96.91
2019-01-30T05:20:11.192Z,97.20
2019-01-30T05:23:01.819Z,96.47
2019-01-30T05:25:54.730Z,94.64
2019-01-30T05:28:45.235Z,95.31
2019-01-30T05:31:35.801Z,96.36
2019-01-30T05:34:28.172Z,96.53
2019-01-30T05:37:18.700Z,95.26
2019-01-30T05:40:11.592Z,96.43
2019-01-30T05:43:01.989Z,97.80
2019-01-30T05:45:52.651Z,99.56
2019-01-30T05:48:43.275Z,100.00
2019-01-30T05:51:33.941Z,100.00
2019-01-30T05:54:24.372Z,100.00
2019-01-30T05:57:14.547Z,100.00
2019-01-30T06:00:04.887Z,100.00
2019-01-30T06:02:55.109Z,100.00
2019-01-30T06:05:45.301Z,100.00
2019-01-30T06:08:35.805Z,100.00
2019-01-30T06:11:27.163Z,100.00
2019-01-30T06:14:18.851Z,100.00
2019-01-30T06:17:09.767Z,100.00
2019-01-30T06:20:00.491Z,100.00
2019-01-30T06:22:51.064Z,100.00
2019-01-30T06:25:41.778Z,100.00
2019-01-30T06:28:32.376Z,100.00
2019-01-30T06:31:22.572Z,100.00
2019-01-30T06:34:12.785Z,100.00
2019-01-30T06:37:03.674Z,100.00
2019-01-30T06:39:54.178Z,100.00
2019-01-30T06:42:44.725Z,100.00
2019-01-30T06:45:35.182Z,97.51
2019-01-30T06:48:25.439Z,95.87
2019-01-30T06:51:15.828Z,95.30
2019-01-30T06:54:06.141Z,96.55
2019-01-30T06:56:56.771Z,96.74
2019-01-30T06:59:47.385Z,96.50
2019-01-30T07:02:37.732Z,95.38
2019-01-30T07:05:28.182Z,95.68
2019-01-30T07:08:18.647Z,95.11
2019-01-30T07:11:10.811Z,94.63
2019-01-30T07:14:01.498Z,95.07
2019-01-30T07:16:52.657Z,94.50
2019-01-30T07:19:43.062Z,95.23
2019-01-30T07:22:33.287Z,95.89
2019-01-30T07:25:24.190Z,95.83
2019-01-30T07:28:14.852Z,96.66
2019-01-30T07:31:05.328Z,97.33
2019-01-30T07:33:56.112Z,95.58
2019-01-30T07:36:46.715Z,90.73
2019-01-30T07:39:37.150Z,84.90
2019-01-30T07:42:30.381Z,80.83
2019-01-30T07:45:21.696Z,82.70
2019-01-30T07:48:12.120Z,82.68
2019-01-30T07:51:02.892Z,83.29
2019-01-30T07:53:54.860Z,86.12
2019-01-30T07:56:45.523Z,86.60
2019-01-30T07:59:35.931Z,88.59
2019-01-30T08:02:26.405Z,88.25
2019-01-30T08:05:17.011Z,89.53
2019-01-30T08:08:07.584Z,84.58
2019-01-30T08:10:58.030Z,79.34
2019-01-30T08:13:48.255Z,65.65
2019-01-30T08:16:38.968Z,58.84
2019-01-30T08:19:29.716Z,54.27
2019-01-30T08:22:19.924Z,54.36
2019-01-30T08:25:11.122Z,60.20
2019-01-30T08:28:01.696Z,62.63
2019-01-30T08:30:52.748Z,71.78
2019-01-30T08:33:42.939Z,71.85
2019-01-30T08:36:33.407Z,72.65
2019-01-30T08:39:23.924Z,75.98
2019-01-30T08:42:14.427Z,77.71
2019-01-30T08:45:05.256Z,78.70
2019-01-30T08:47:55.820Z,77.92
2019-01-30T08:50:46.240Z,78.62
2019-01-30T08:53:36.799Z,75.79
2019-01-30T08:56:27.386Z,74.49
2019-01-30T08:59:17.827Z,74.41
2019-01-30T09:02:08.212Z,76.67
2019-01-30T09:04:58.559Z,77.42
2019-01-30T09:07:48.985Z,78.01
2019-01-30T09:10:39.284Z,78.42
2019-01-30T09:13:29.772Z,81.27
2019-01-30T09:16:20.483Z,81.90
2019-01-30T09:19:11.308Z,81.27
2019-01-30T09:22:02.165Z,82.16
2019-01-30T09:24:53.406Z,82.12
2019-01-30T09:27:44.344Z,79.29
2019-01-30T09:30:39.342Z,75.76
2019-01-30T09:33:29.908Z,74.18
2019-01-30T09:36:20.581Z,74.25
2019-01-30T09:39:11.380Z,74.52
2019-01-30T09:42:01.793Z,77.28
2019-01-30T09:44:52.449Z,78.75
2019-01-30T09:47:42.816Z,80.06
2019-01-30T09:50:34.314Z,81.48
2019-01-30T09:53:24.628Z,83.20
2019-01-30T09:56:15.794Z,81.77
2019-01-30T09:59:06.114Z,79.03
2019-01-30T10:01:59.243Z,78.59
2019-01-30T10:04:49.313Z,77.81
2019-01-30T10:07:39.500Z,79.19
2019-01-30T10:10:31.609Z,81.04
2019-01-30T10:13:22.188Z,78.30
2019-01-30T10:16:15.466Z,78.50
2019-01-30T10:19:05.923Z,79.38
2019-01-30T10:21:56.451Z,81.24
2019-01-30T10:24:46.729Z,83.12
2019-01-30T10:27:37.399Z,84.81
2019-01-30T10:30:30.034Z,87.22
2019-01-30T10:33:20.646Z,90.61
2019-01-30T10:36:11.202Z,92.02
2019-01-30T10:39:01.212Z,91.74
2019-01-30T10:41:51.706Z,85.73
2019-01-30T10:44:45.064Z,84.79
2019-01-30T10:47:35.229Z,84.85
2019-01-30T10:50:26.415Z,88.38
2019-01-30T10:53:17.017Z,89.33
2019-01-30T10:56:07.200Z,88.64
2019-01-30T10:58:57.462Z,86.06
2019-01-30T11:01:47.799Z,88.73
2019-01-30T11:04:38.179Z,89.15
2019-01-30T11:07:28.687Z,90.91
2019-01-30T11:10:19.714Z,91.91
2019-01-30T11:13:10.111Z,93.16
2019-01-30T11:16:01.312Z,93.04
2019-01-30T11:18:51.895Z,92.30
2019-01-30T11:21:42.324Z,87.93
2019-01-30T11:24:32.712Z,88.14
2019-01-30T11:27:22.942Z,87.74
2019-01-30T11:30:13.643Z,90.93
2019-01-30T11:33:04.253Z,93.31
2019-01-30T11:35:54.779Z,90.19
2019-01-30T11:38:45.462Z,86.30
2019-01-30T11:41:35.802Z,86.84
2019-01-30T11:44:27.957Z,86.60
2019-01-30T11:47:18.386Z,88.53
2019-01-30T11:50:10.409Z,90.39
2019-01-30T11:53:00.939Z,86.41
2019-01-30T11:55:51.871Z,90.87
2019-01-30T11:58:42.265Z,89.11
2019-01-30T12:01:32.512Z,86.84
2019-01-30T12:04:22.755Z,88.78
2019-01-30T12:07:13.200Z,87.33
2019-01-30T12:10:03.571Z,88.39
2019-01-30T12:12:54.132Z,85.85
2019-01-30T12:15:44.588Z,82.48
2019-01-30T12:18:35.236Z,84.22
2019-01-30T12:21:25.632Z,82.22
2019-01-30T12:24:16.482Z,81.16
2019-01-30T12:27:08.555Z,80.71
2019-01-30T12:29:59.237Z,80.18
2019-01-30T12:32:49.448Z,81.73
2019-01-30T12:35:39.950Z,80.92
2019-01-30T12:38:30.311Z,81.06
2019-01-30T12:41:20.601Z,82.01
2019-01-30T12:44:11.031Z,83.42
2019-01-30T12:47:01.244Z,82.19
2019-01-30T12:49:51.591Z,81.83
2019-01-30T12:52:42.088Z,81.33
2019-01-30T12:55:32.694Z,82.38
2019-01-30T12:58:23.372Z,83.24
2019-01-30T13:01:13.966Z,86.09
2019-01-30T13:04:04.668Z,80.51
2019-01-30T13:06:55.074Z,77.72
2019-01-30T13:09:45.815Z,77.90
2019-01-30T13:12:36.400Z,77.27
2019-01-30T13:15:27.703Z,78.27
2019-01-30T13:18:18.580Z,75.19
2019-01-30T13:21:09.393Z,74.89
2019-01-30T13:23:59.753Z,76.62
2019-01-30T13:26:50.113Z,76.78
2019-01-30T13:29:40.741Z,75.96
2019-01-30T13:32:33.212Z,73.97
2019-01-30T13:35:24.601Z,73.97
2019-01-30T13:38:15.253Z,72.69
2019-01-30T13:41:05.924Z,73.82
2019-01-30T13:43:56.330Z,73.34
2019-01-30T13:46:51.521Z,72.67
2019-01-30T13:49:45.206Z,71.61
2019-01-30T13:52:35.667Z,71.92
2019-01-30T13:55:26.004Z,70.11
2019-01-30T13:58:18.278Z,71.40
2019-01-30T14:01:17.305Z,72.61
2019-01-30T14:04:00.753Z,74.17
2019-01-30T14:06:51.331Z,74.15
2019-01-30T14:09:41.903Z,74.78
2019-01-30T14:12:32.744Z,74.69
2019-01-30T14:15:23.717Z,72.27
2019-01-30T14:18:14.326Z,73.78
2019-01-30T14:21:04.479Z,72.56
2019-01-30T14:23:54.995Z,73.74
2019-01-30T14:26:45.347Z,75.06
2019-01-30T14:29:36.027Z,75.58
2019-01-30T14:32:27.575Z,74.32
2019-01-30T14:35:18.005Z,76.12
2019-01-30T14:38:08.751Z,77.38
2019-01-30T14:40:59.386Z,78.17
2019-01-30T14:43:49.960Z,74.91
2019-01-30T14:46:40.783Z,76.20
2019-01-30T14:49:33.728Z,75.96
2019-01-30T14:52:23.992Z,74.45
2019-01-30T14:55:14.480Z,76.32
2019-01-30T14:58:05.322Z,75.46
2019-01-30T15:00:55.744Z,75.60
2019-01-30T15:03:47.513Z,76.19
2019-01-30T15:06:37.941Z,77.29
2019-01-30T15:09:28.164Z,78.45
2019-01-30T15:12:18.692Z,78.64
2019-01-30T15:15:11.620Z,77.89
2019-01-30T15:18:01.845Z,77.36
2019-01-30T15:20:54.654Z,79.51
2019-01-30T15:23:45.235Z,79.60
2019-01-30T15:26:35.771Z,80.81
2019-01-30T15:29:26.219Z,82.32
2019-01-30T15:32:16.901Z,83.69
2019-01-30T15:35:07.887Z,85.15
2019-01-30T15:37:58.406Z,85.50
2019-01-30T15:40:48.774Z,85.82
2019-01-30T15:43:39.031Z,85.79
2019-01-30T15:46:29.098Z,86.97
2019-01-30T15:49:19.316Z,87.20
2019-01-30T15:52:09.809Z,87.55
2019-01-30T15:55:00.130Z,87.42
2019-01-30T15:57:55.917Z,88.00
2019-01-30T16:01:09.820Z,89.13
2019-01-30T16:04:00.159Z,90.06
2019-01-30T16:06:51.169Z,90.60
2019-01-30T16:09:41.328Z,90.34
2019-01-30T16:12:32.118Z,89.81
2019-01-30T16:15:25.577Z,90.93
2019-01-30T16:18:16.153Z,90.19
2019-01-30T16:21:06.579Z,91.44
2019-01-30T16:23:57.076Z,91.56
2019-01-30T16:26:47.230Z,91.63
2019-01-30T16:29:38.491Z,90.94
2019-01-30T16:32:29.027Z,91.80
2019-01-30T16:35:25.677Z,92.16
2019-01-30T16:38:16.120Z,92.09
2019-01-30T16:41:06.674Z,92.25
2019-01-30T16:43:56.918Z,92.92
2019-01-30T16:46:47.422Z,93.86
2019-01-30T16:49:38.106Z,93.29
2019-01-30T16:52:28.598Z,92.98
2019-01-30T16:55:19.218Z,92.96
2019-01-30T16:58:11.067Z,92.79
2019-01-30T17:01:01.253Z,93.30
2019-01-30T17:03:51.622Z,94.48
2019-01-30T17:06:43.875Z,94.86
2019-01-30T17:09:34.244Z,95.34
2019-01-30T17:12:24.651Z,95.88
2019-01-30T17:15:17.724Z,96.61
2019-01-30T17:18:09.339Z,97.14
2019-01-30T17:20:59.707Z,97.06
2019-01-30T17:23:50.115Z,97.39
2019-01-30T17:26:40.210Z,97.41
2019-01-30T17:29:30.708Z,97.01
2019-01-30T17:32:21.548Z,96.91
2019-01-30T17:35:11.941Z,92.78
2019-01-30T17:38:02.757Z,91.25
2019-01-30T17:40:53.195Z,92.11
2019-01-30T17:43:43.807Z,88.66
2019-01-30T17:46:34.048Z,89.94
2019-01-30T17:49:24.607Z,90.38
2019-01-30T17:52:14.826Z,90.43
2019-01-30T17:55:05.666Z,92.09
2019-01-30T17:57:55.981Z,92.71
2019-01-30T18:01:04.586Z,94.53
2019-01-30T18:03:55.074Z,96.13
2019-01-30T18:06:46.748Z,96.86
2019-01-30T18:09:37.290Z,97.29
2019-01-30T18:12:28.001Z,98.79
2019-01-30T18:15:18.497Z,100.00
2019-01-30T18:18:09.356Z,100.00
2019-01-30T18:20:59.885Z,100.00
2019-01-30T18:23:50.112Z,100.00
2019-01-30T18:26:40.267Z,100.00
2019-01-30T18:29:30.490Z,100.00
2019-01-30T18:32:20.893Z,99.56
2019-01-30T18:35:11.553Z,99.51
2019-01-30T18:38:02.849Z,97.84
2019-01-30T18:40:53.723Z,99.47
2019-01-30T18:43:45.541Z,100.00
2019-01-30T18:46:36.439Z,100.00
2019-01-30T18:49:27.660Z,100.00
2019-01-30T18:52:20.763Z,100.00
2019-01-30T18:55:11.065Z,100.00
2019-01-30T18:58:01.644Z,100.00
2019-01-30T19:00:52.424Z,100.00
2019-01-30T19:03:43.180Z,100.00
2019-01-30T19:06:33.654Z,100.00
2019-01-30T19:09:24.001Z,100.00
2019-01-30T19:12:14.767Z,100.00
2019-01-30T19:15:05.709Z,100.00
2019-01-30T19:17:55.900Z,100.00
2019-01-30T19:20:48.193Z,100.00
2019-01-30T19:23:38.604Z,100.00
2019-01-30T19:26:28.976Z,100.00
2019-01-30T19:29:19.482Z,100.00
2019-01-30T19:32:10.022Z,100.00
2019-01-30T19:35:00.481Z,100.00
2019-01-30T19:37:51.200Z,100.00
2019-01-30T19:40:42.006Z,100.00
2019-01-30T19:43:33.940Z,100.00
2019-01-30T19:46:24.465Z,100.00
2019-01-30T19:49:14.972Z,100.00
2019-01-30T19:52:05.193Z,100.00
2019-01-30T19:54:55.370Z,100.00
2019-01-30T19:57:45.895Z,100.00
2019-01-30T20:00:39.185Z,100.00
2019-01-30T20:03:32.504Z,100.00
2019-01-30T20:06:23.035Z,100.00
2019-01-30T20:09:18.382Z,100.00
2019-01-30T20:12:09.369Z,100.00
2019-01-30T20:14:59.791Z,100.00
2019-01-30T20:17:50.567Z,100.00
2019-01-30T20:20:40.960Z,100.00
2019-01-30T20:23:31.168Z,100.00
2019-01-30T20:26:21.325Z,100.00
2019-01-30T20:29:11.898Z,100.00
2019-01-30T20:32:02.384Z,100.00
2019-01-30T20:34:52.989Z,100.00
2019-01-30T20:37:43.603Z,100.00
2019-01-30T20:40:34.113Z,100.00
2019-01-30T20:43:24.585Z,100.00
2019-01-30T20:46:15.251Z,100.00
2019-01-30T20:49:05.697Z,100.00
2019-01-30T20:51:57.413Z,100.00
2019-01-30T20:54:47.493Z,100.00
2019-01-30T20:57:40.512Z,100.00
2019-01-30T21:00:35.005Z,100.00
2019-01-30T21:03:25.680Z,100.00
2019-01-30T21:06:16.098Z,100.00
2019-01-30T21:09:09.689Z,100.00
2019-01-30T21:11:59.788Z,100.00
2019-01-30T21:14:50.298Z,100.00
2019-01-30T21:17:40.747Z,100.00
2019-01-30T21:20:31.524Z,100.00
2019-01-30T21:23:21.928Z,100.00
2019-01-30T21:26:13.152Z,100.00
2019-01-30T21:29:03.716Z,100.00
2019-01-30T21:31:54.991Z,100.00
2019-01-30T21:34:45.451Z,100.00
2019-01-30T21:37:36.179Z,100.00
2019-01-30T21:40:26.577Z,100.00
2019-01-30T21:43:17.065Z,100.00
2019-01-30T21:46:07.537Z,100.00
2019-01-30T21:48:57.929Z,100.00
2019-01-30T21:51:48.349Z,100.00
2019-01-30T21:54:38.974Z,100.00
2019-01-30T21:57:29.483Z,100.00
2019-01-30T22:00:21.585Z,100.00
2019-01-30T22:03:12.072Z,100.00
2019-01-30T22:06:02.751Z,100.00
2019-01-30T22:08:53.311Z,100.00
2019-01-30T22:11:44.043Z,100.00
2019-01-30T22:14:34.545Z,100.00
2019-01-30T22:17:24.980Z,100.00
2019-01-30T22:20:17.270Z,100.00
2019-01-30T22:23:07.739Z,100.00
2019-01-30T22:25:58.205Z,100.00
2019-01-30T22:28:48.754Z,100.00
2019-01-30T22:31:39.147Z,100.00
2019-01-30T22:34:29.658Z,100.00
2019-01-30T22:37:20.672Z,100.00
2019-01-30T22:40:11.669Z,100.00
2019-01-30T22:43:01.851Z,100.00
2019-01-30T22:45:52.256Z,100.00
2019-01-30T22:48:42.982Z,100.00
2019-01-30T22:51:33.726Z,100.00
2019-01-30T22:54:23.959Z,100.00
2019-01-30T22:57:14.864Z,100.00
2019-01-30T23:00:06.868Z,100.00
2019-01-30T23:02:59.201Z,100.00
2019-01-30T23:06:37.583Z,100.00
2019-01-30T23:10:20.867Z,100.00
2019-01-30T23:13:48.915Z,100.00
2019-01-30T23:17:27.915Z,100.00
2019-01-30T23:20:28.463Z,100.00
2019-01-30T23:23:46.738Z,100.00
2019-01-30T23:27:01.219Z,100.00
2019-01-30T23:30:13.011Z,100.00
2019-01-30T23:33:39.199Z,100.00
2019-01-30T23:37:10.821Z,100.00
2019-01-30T23:40:18.676Z,100.00
2019-01-30T23:43:58.144Z,100.00
2019-01-30T23:47:24.079Z,100.00
2019-01-30T23:50:52.768Z,100.00
2019-01-30T23:54:18.776Z,100.00
2019-01-30T23:57:36.102Z,100.00
